sensor_id;sensor_type;location;lat;lon;timestamp;pressure;altitude;pressure_sealevel;temperature;humidity
66176;BME280;52977;44.816;20.538;2023-05-11T00:00:31;99564.03;;;13.08;65.62
66176;BME280;52977;44.816;20.538;2023-05-11T00:02:57;99569.41;;;13.05;65.93
66176;BME280;52977;44.816;20.538;2023-05-11T00:05:23;99582.63;;;13.15;65.68
66176;BME280;52977;44.816;20.538;2023-05-11T00:07:49;99578.28;;;13.26;65.61
66176;BME280;52977;44.816;20.538;2023-05-11T00:10:16;99581.50;;;13.28;65.47
66176;BME280;52977;44.816;20.538;2023-05-11T00:12:42;99495.53;;;12.59;65.66
66176;BME280;52977;44.816;20.538;2023-05-11T00:15:09;99574.41;;;13.15;65.41
66176;BME280;52977;44.816;20.538;2023-05-11T00:17:35;99575.56;;;13.14;65.74
66176;BME280;52977;44.816;20.538;2023-05-11T00:20:01;99557.28;;;13.06;65.78
66176;BME280;52977;44.816;20.538;2023-05-11T00:22:28;99565.28;;;13.11;65.96
66176;BME280;52977;44.816;20.538;2023-05-11T00:24:54;99574.97;;;13.21;66.04
66176;BME280;52977;44.816;20.538;2023-05-11T00:27:21;99523.38;;;12.98;65.89
66176;BME280;52977;44.816;20.538;2023-05-11T00:29:47;99545.06;;;13.15;65.88
66176;BME280;52977;44.816;20.538;2023-05-11T00:32:13;99530.34;;;12.95;65.70
66176;BME280;52977;44.816;20.538;2023-05-11T00:34:40;99573.63;;;13.39;65.76
66176;BME280;52977;44.816;20.538;2023-05-11T00:37:07;99535.34;;;13.06;66.05
66176;BME280;52977;44.816;20.538;2023-05-11T00:39:33;99565.28;;;13.23;66.33
66176;BME280;52977;44.816;20.538;2023-05-11T00:42:05;99548.94;;;13.27;65.68
66176;BME280;52977;44.816;20.538;2023-05-11T00:44:32;99571.22;;;13.38;65.33
66176;BME280;52977;44.816;20.538;2023-05-11T00:46:58;99544.25;;;12.90;67.13
66176;BME280;52977;44.816;20.538;2023-05-11T00:49:24;99560.59;;;13.11;66.61
66176;BME280;52977;44.816;20.538;2023-05-11T00:51:51;99567.53;;;13.09;67.14
66176;BME280;52977;44.816;20.538;2023-05-11T00:54:17;99528.63;;;12.78;67.08
66176;BME280;52977;44.816;20.538;2023-05-11T00:56:43;99545.53;;;13.05;66.53
66176;BME280;52977;44.816;20.538;2023-05-11T00:59:10;99555.34;;;13.19;66.88
66176;BME280;52977;44.816;20.538;2023-05-11T01:01:39;99519.50;;;12.87;67.05
66176;BME280;52977;44.816;20.538;2023-05-11T01:04:05;99488.88;;;12.47;67.47
66176;BME280;52977;44.816;20.538;2023-05-11T01:06:43;99505.22;;;12.69;67.50
66176;BME280;52977;44.816;20.538;2023-05-11T01:11:59;99552.38;;;13.11;67.45
66176;BME280;52977;44.816;20.538;2023-05-11T01:14:44;99518.47;;;12.79;67.53
66176;BME280;52977;44.816;20.538;2023-05-11T01:17:22;99530.22;;;12.92;67.91
66176;BME280;52977;44.816;20.538;2023-05-11T01:19:57;99564.16;;;13.12;67.51
66176;BME280;52977;44.816;20.538;2023-05-11T01:22:54;99556.38;;;13.14;67.48
66176;BME280;52977;44.816;20.538;2023-05-11T01:25:41;99556.16;;;13.07;67.58
66176;BME280;52977;44.816;20.538;2023-05-11T01:28:27;99559.09;;;13.14;67.64
66176;BME280;52977;44.816;20.538;2023-05-11T01:30:56;99556.94;;;13.07;67.98
66176;BME280;52977;44.816;20.538;2023-05-11T01:33:33;99558.31;;;13.01;68.30
66176;BME280;52977;44.816;20.538;2023-05-11T01:36:08;99560.72;;;13.03;68.44
66176;BME280;52977;44.816;20.538;2023-05-11T01:38:38;99484.09;;;12.57;68.55
66176;BME280;52977;44.816;20.538;2023-05-11T01:41:10;99519.16;;;12.76;68.56
66176;BME280;52977;44.816;20.538;2023-05-11T01:43:38;99482.72;;;12.51;68.89
66176;BME280;52977;44.816;20.538;2023-05-11T01:46:07;99506.69;;;12.66;68.43
66176;BME280;52977;44.816;20.538;2023-05-11T01:48:37;99517.78;;;12.82;68.81
66176;BME280;52977;44.816;20.538;2023-05-11T01:51:04;99555.22;;;13.03;69.00
66176;BME280;52977;44.816;20.538;2023-05-11T01:53:33;99519.72;;;12.81;69.14
66176;BME280;52977;44.816;20.538;2023-05-11T01:56:00;99486.38;;;12.42;69.10
66176;BME280;52977;44.816;20.538;2023-05-11T01:58:28;99491.53;;;12.56;69.29
66176;BME280;52977;44.816;20.538;2023-05-11T02:00:54;99543.69;;;12.97;69.16
66176;BME280;52977;44.816;20.538;2023-05-11T02:03:21;99544.25;;;12.90;69.58
66176;BME280;52977;44.816;20.538;2023-05-11T02:05:48;99545.16;;;12.82;69.99
66176;BME280;52977;44.816;20.538;2023-05-11T02:08:15;99519.56;;;12.65;70.31
66176;BME280;52977;44.816;20.538;2023-05-11T02:10:42;99535.09;;;12.74;70.25
66176;BME280;52977;44.816;20.538;2023-05-11T02:13:09;99519.59;;;12.78;70.03
66176;BME280;52977;44.816;20.538;2023-05-11T02:15:41;99416.88;;;12.10;70.04
66176;BME280;52977;44.816;20.538;2023-05-11T02:18:11;99467.00;;;12.47;70.30
66176;BME280;52977;44.816;20.538;2023-05-11T02:20:40;99517.22;;;12.89;69.76
66176;BME280;52977;44.816;20.538;2023-05-11T02:23:09;99534.78;;;12.88;69.92
66176;BME280;52977;44.816;20.538;2023-05-11T02:25:36;99539.03;;;12.85;70.89
66176;BME280;52977;44.816;20.538;2023-05-11T02:28:03;99507.25;;;12.59;70.40
66176;BME280;52977;44.816;20.538;2023-05-11T02:30:30;99511.72;;;12.76;70.50
66176;BME280;52977;44.816;20.538;2023-05-11T02:33:03;99508.63;;;12.78;70.12
66176;BME280;52977;44.816;20.538;2023-05-11T02:35:33;99504.91;;;12.82;70.03
66176;BME280;52977;44.816;20.538;2023-05-11T02:38:03;99499.06;;;12.72;69.79
66176;BME280;52977;44.816;20.538;2023-05-11T02:40:39;99514.94;;;12.78;70.46
66176;BME280;52977;44.816;20.538;2023-05-11T02:43:10;99536.38;;;12.89;69.71
66176;BME280;52977;44.816;20.538;2023-05-11T02:45:43;99511.38;;;12.78;70.21
66176;BME280;52977;44.816;20.538;2023-05-11T02:48:21;99517.44;;;12.83;70.06
66176;BME280;52977;44.816;20.538;2023-05-11T02:50:50;99472.69;;;12.55;69.88
66176;BME280;52977;44.816;20.538;2023-05-11T02:53:18;99527.94;;;12.94;70.07
66176;BME280;52977;44.816;20.538;2023-05-11T02:55:46;99438.69;;;12.43;69.41
66176;BME280;52977;44.816;20.538;2023-05-11T02:58:13;99494.38;;;12.72;70.29
66176;BME280;52977;44.816;20.538;2023-05-11T03:00:44;99495.53;;;12.59;70.42
66176;BME280;52977;44.816;20.538;2023-05-11T03:03:16;99494.09;;;12.40;71.21
66176;BME280;52977;44.816;20.538;2023-05-11T03:05:42;99526.44;;;12.72;70.87
66176;BME280;52977;44.816;20.538;2023-05-11T03:08:07;99470.16;;;12.37;70.42
66176;BME280;52977;44.816;20.538;2023-05-11T03:10:34;99422.34;;;12.22;70.18
66176;BME280;52977;44.816;20.538;2023-05-11T03:13:01;99515.16;;;12.73;70.23
66176;BME280;52977;44.816;20.538;2023-05-11T03:15:29;99529.03;;;12.56;70.99
66176;BME280;52977;44.816;20.538;2023-05-11T03:17:58;99512.53;;;12.64;71.09
66176;BME280;52977;44.816;20.538;2023-05-11T03:20:26;99465.13;;;12.27;70.62
66176;BME280;52977;44.816;20.538;2023-05-11T03:22:53;99537.03;;;12.61;71.24
66176;BME280;52977;44.816;20.538;2023-05-11T03:25:22;99513.06;;;12.45;71.08
66176;BME280;52977;44.816;20.538;2023-05-11T03:27:49;99476.34;;;12.46;70.92
66176;BME280;52977;44.816;20.538;2023-05-11T03:30:18;99473.19;;;12.23;71.24
66176;BME280;52977;44.816;20.538;2023-05-11T03:32:48;99468.44;;;12.33;71.33
66176;BME280;52977;44.816;20.538;2023-05-11T03:35:15;99521.19;;;12.79;71.37
66176;BME280;52977;44.816;20.538;2023-05-11T03:37:42;99503.72;;;12.46;71.55
66176;BME280;52977;44.816;20.538;2023-05-11T03:40:11;99495.28;;;12.52;71.21
66176;BME280;52977;44.816;20.538;2023-05-11T03:42:47;99531.13;;;12.71;71.42
66176;BME280;52977;44.816;20.538;2023-05-11T03:45:17;99483.16;;;12.53;71.37
66176;BME280;52977;44.816;20.538;2023-05-11T03:47:46;99521.53;;;12.77;71.48
66176;BME280;52977;44.816;20.538;2023-05-11T03:50:14;99522.91;;;12.71;71.32
66176;BME280;52977;44.816;20.538;2023-05-11T03:52:40;99520.28;;;12.75;71.44
66176;BME280;52977;44.816;20.538;2023-05-11T03:55:07;99457.94;;;12.35;72.01
66176;BME280;52977;44.816;20.538;2023-05-11T03:57:35;99523.13;;;12.66;72.00
66176;BME280;52977;44.816;20.538;2023-05-11T04:00:01;99450.63;;;12.26;72.01
66176;BME280;52977;44.816;20.538;2023-05-11T04:02:29;99505.22;;;12.56;72.33
66176;BME280;52977;44.816;20.538;2023-05-11T04:04:55;99491.88;;;12.55;71.72
66176;BME280;52977;44.816;20.538;2023-05-11T04:07:21;99535.69;;;12.92;72.27
66176;BME280;52977;44.816;20.538;2023-05-11T04:09:47;99532.50;;;12.77;71.89
66176;BME280;52977;44.816;20.538;2023-05-11T04:12:13;99489.91;;;12.55;71.82
66176;BME280;52977;44.816;20.538;2023-05-11T04:14:40;99533.19;;;12.87;71.82
66176;BME280;52977;44.816;20.538;2023-05-11T04:17:06;99489.19;;;12.46;72.47
66176;BME280;52977;44.816;20.538;2023-05-11T04:19:31;99533.06;;;12.83;72.01
66176;BME280;52977;44.816;20.538;2023-05-11T04:21:57;99494.91;;;12.41;72.44
66176;BME280;52977;44.816;20.538;2023-05-11T04:24:22;99538.41;;;12.79;72.68
66176;BME280;52977;44.816;20.538;2023-05-11T04:26:54;99472.47;;;12.47;72.17
66176;BME280;52977;44.816;20.538;2023-05-11T04:29:20;99472.53;;;12.39;72.42
66176;BME280;52977;44.816;20.538;2023-05-11T04:31:46;99541.50;;;12.78;72.38
66176;BME280;52977;44.816;20.538;2023-05-11T04:34:12;99541.06;;;12.76;73.20
66176;BME280;52977;44.816;20.538;2023-05-11T04:36:39;99495.16;;;12.48;72.53
66176;BME280;52977;44.816;20.538;2023-05-11T04:39:07;99513.66;;;12.63;72.53
66176;BME280;52977;44.816;20.538;2023-05-11T04:41:35;99510.09;;;12.51;72.80
66176;BME280;52977;44.816;20.538;2023-05-11T04:44:01;99556.34;;;12.89;73.32
66176;BME280;52977;44.816;20.538;2023-05-11T04:46:27;99522.91;;;12.71;72.64
66176;BME280;52977;44.816;20.538;2023-05-11T04:48:52;99570.25;;;12.72;73.45
66176;BME280;52977;44.816;20.538;2023-05-11T04:51:19;99531.47;;;12.57;73.63
66176;BME280;52977;44.816;20.538;2023-05-11T04:53:45;99552.47;;;12.78;73.56
66176;BME280;52977;44.816;20.538;2023-05-11T04:56:11;99521.75;;;12.72;73.29
66176;BME280;52977;44.816;20.538;2023-05-11T04:58:37;99521.19;;;12.67;73.76
66176;BME280;52977;44.816;20.538;2023-05-11T05:01:03;99496.16;;;12.31;73.95
66176;BME280;52977;44.816;20.538;2023-05-11T05:03:29;99489.13;;;12.55;73.63
66176;BME280;52977;44.816;20.538;2023-05-11T05:05:54;99518.41;;;12.54;73.89
66176;BME280;52977;44.816;20.538;2023-05-11T05:08:20;99544.56;;;12.64;74.33
66176;BME280;52977;44.816;20.538;2023-05-11T05:10:47;99548.56;;;12.67;74.21
66176;BME280;52977;44.816;20.538;2023-05-11T05:13:12;99546.06;;;12.74;74.59
66176;BME280;52977;44.816;20.538;2023-05-11T05:15:42;99535.09;;;12.74;74.18
66176;BME280;52977;44.816;20.538;2023-05-11T05:18:09;99545.50;;;12.80;74.71
66176;BME280;52977;44.816;20.538;2023-05-11T05:20:35;99564.56;;;12.77;74.57
66176;BME280;52977;44.816;20.538;2023-05-11T05:23:01;99549.16;;;12.72;75.00
66176;BME280;52977;44.816;20.538;2023-05-11T05:25:27;99542.75;;;12.68;75.36
66176;BME280;52977;44.816;20.538;2023-05-11T05:27:54;99487.69;;;12.36;74.55
66176;BME280;52977;44.816;20.538;2023-05-11T05:30:19;99477.00;;;12.31;74.37
66176;BME280;52977;44.816;20.538;2023-05-11T05:32:46;99524.06;;;12.70;74.97
66176;BME280;52977;44.816;20.538;2023-05-11T05:35:12;99557.94;;;12.78;75.34
66176;BME280;52977;44.816;20.538;2023-05-11T05:37:39;99571.56;;;12.87;74.90
66176;BME280;52977;44.816;20.538;2023-05-11T05:40:05;99549.63;;;12.87;75.41
66176;BME280;52977;44.816;20.538;2023-05-11T05:42:37;99564.00;;;12.96;74.70
66176;BME280;52977;44.816;20.538;2023-05-11T05:45:04;99524.75;;;12.67;75.55
66176;BME280;52977;44.816;20.538;2023-05-11T05:47:30;99496.84;;;12.53;75.65
66176;BME280;52977;44.816;20.538;2023-05-11T05:49:56;99563.09;;;13.04;75.36
66176;BME280;52977;44.816;20.538;2023-05-11T05:52:23;99509.31;;;12.75;75.33
66176;BME280;52977;44.816;20.538;2023-05-11T05:54:49;99470.88;;;12.59;75.66
66176;BME280;52977;44.816;20.538;2023-05-11T05:57:15;99548.94;;;13.27;74.98
66176;BME280;52977;44.816;20.538;2023-05-11T05:59:42;99524.28;;;12.90;74.47
66176;BME280;52977;44.816;20.538;2023-05-11T06:02:08;99506.72;;;12.91;75.20
66176;BME280;52977;44.816;20.538;2023-05-11T06:04:34;99553.19;;;13.12;75.04
66176;BME280;52977;44.816;20.538;2023-05-11T06:06:59;99567.00;;;13.40;73.56
66176;BME280;52977;44.816;20.538;2023-05-11T06:09:26;99564.28;;;13.40;73.21
66176;BME280;52977;44.816;20.538;2023-05-11T06:11:52;99536.63;;;13.21;73.37
66176;BME280;52977;44.816;20.538;2023-05-11T06:14:21;99553.88;;;13.46;73.66
66176;BME280;52977;44.816;20.538;2023-05-11T06:16:48;99567.78;;;13.65;73.16
66176;BME280;52977;44.816;20.538;2023-05-11T06:19:14;99573.75;;;13.55;73.35
66176;BME280;52977;44.816;20.538;2023-05-11T06:21:41;99551.00;;;13.42;72.84
66176;BME280;52977;44.816;20.538;2023-05-11T06:24:10;99575.91;;;13.62;73.62
66176;BME280;52977;44.816;20.538;2023-05-11T06:26:39;99572.47;;;13.53;73.36
66176;BME280;52977;44.816;20.538;2023-05-11T06:29:06;99560.25;;;13.50;72.80
66176;BME280;52977;44.816;20.538;2023-05-11T06:31:33;99543.56;;;13.30;72.93
66176;BME280;52977;44.816;20.538;2023-05-11T06:34:00;99577.75;;;13.58;73.46
66176;BME280;52977;44.816;20.538;2023-05-11T06:36:28;99570.88;;;13.52;73.39
66176;BME280;52977;44.816;20.538;2023-05-11T06:38:54;99592.59;;;13.57;72.99
66176;BME280;52977;44.816;20.538;2023-05-11T06:41:21;99581.81;;;13.64;73.38
66176;BME280;52977;44.816;20.538;2023-05-11T06:43:47;99597.00;;;13.74;73.62
66176;BME280;52977;44.816;20.538;2023-05-11T06:46:19;99568.88;;;13.77;72.31
66176;BME280;52977;44.816;20.538;2023-05-11T06:48:45;99580.75;;;13.81;72.57
66176;BME280;52977;44.816;20.538;2023-05-11T06:51:11;99526.44;;;13.46;72.67
66176;BME280;52977;44.816;20.538;2023-05-11T06:53:37;99539.56;;;13.65;72.39
66176;BME280;52977;44.816;20.538;2023-05-11T06:56:03;99598.84;;;14.10;71.98
66176;BME280;52977;44.816;20.538;2023-05-11T06:58:28;99561.63;;;13.97;71.42
66176;BME280;52977;44.816;20.538;2023-05-11T07:00:54;99504.25;;;13.63;71.93
66176;BME280;52977;44.816;20.538;2023-05-11T07:03:20;99584.19;;;14.18;71.86
66176;BME280;52977;44.816;20.538;2023-05-11T07:05:46;99542.47;;;13.84;71.98
66176;BME280;52977;44.816;20.538;2023-05-11T07:08:12;99566.84;;;14.02;71.91
66176;BME280;52977;44.816;20.538;2023-05-11T07:10:39;99601.38;;;14.15;71.25
66176;BME280;52977;44.816;20.538;2023-05-11T07:13:06;99560.81;;;13.96;71.56
66176;BME280;52977;44.816;20.538;2023-05-11T07:15:32;99539.38;;;13.86;71.27
66176;BME280;52977;44.816;20.538;2023-05-11T07:17:57;99565.91;;;14.10;72.03
66176;BME280;52977;44.816;20.538;2023-05-11T07:20:25;99579.09;;;14.33;71.34
66176;BME280;52977;44.816;20.538;2023-05-11T07:22:51;99547.22;;;14.00;71.77
66176;BME280;52977;44.816;20.538;2023-05-11T07:25:16;99569.72;;;14.34;71.96
66176;BME280;52977;44.816;20.538;2023-05-11T07:27:42;99591.84;;;14.41;71.65
66176;BME280;52977;44.816;20.538;2023-05-11T07:30:08;99502.25;;;13.76;71.23
66176;BME280;52977;44.816;20.538;2023-05-11T07:32:34;99569.47;;;14.39;70.82
66176;BME280;52977;44.816;20.538;2023-05-11T07:35:00;99527.25;;;14.15;71.66
66176;BME280;52977;44.816;20.538;2023-05-11T07:37:26;99588.09;;;14.62;70.85
66176;BME280;52977;44.816;20.538;2023-05-11T07:39:52;99571.25;;;14.47;70.75
66176;BME280;52977;44.816;20.538;2023-05-11T07:42:19;99538.38;;;14.35;70.99
66176;BME280;52977;44.816;20.538;2023-05-11T07:44:45;99579.03;;;14.74;70.06
66176;BME280;52977;44.816;20.538;2023-05-11T07:47:11;99572.56;;;14.53;69.19
66176;BME280;52977;44.816;20.538;2023-05-11T07:49:38;99579.06;;;14.61;69.07
66176;BME280;52977;44.816;20.538;2023-05-11T07:52:04;99569.91;;;14.69;69.23
66176;BME280;52977;44.816;20.538;2023-05-11T07:54:30;99581.53;;;14.95;68.42
66176;BME280;52977;44.816;20.538;2023-05-11T07:56:56;99559.38;;;14.88;67.72
66176;BME280;52977;44.816;20.538;2023-05-11T07:59:22;99583.09;;;14.96;67.69
66176;BME280;52977;44.816;20.538;2023-05-11T08:01:49;99593.41;;;14.99;68.36
66176;BME280;52977;44.816;20.538;2023-05-11T08:04:15;99574.06;;;15.11;68.34
66176;BME280;52977;44.816;20.538;2023-05-11T08:06:41;99558.28;;;15.08;68.77
66176;BME280;52977;44.816;20.538;2023-05-11T08:09:07;99585.75;;;15.24;67.65
66176;BME280;52977;44.816;20.538;2023-05-11T08:11:33;99523.13;;;14.82;67.35
66176;BME280;52977;44.816;20.538;2023-05-11T08:13:59;99523.91;;;14.82;66.49
66176;BME280;52977;44.816;20.538;2023-05-11T08:16:26;99601.19;;;15.29;67.30
66176;BME280;52977;44.816;20.538;2023-05-11T08:18:52;99588.31;;;15.33;67.78
66176;BME280;52977;44.816;20.538;2023-05-11T08:21:18;99513.53;;;14.92;68.16
66176;BME280;52977;44.816;20.538;2023-05-11T08:23:44;99593.91;;;15.36;67.88
66176;BME280;52977;44.816;20.538;2023-05-11T08:26:10;99563.16;;;15.15;68.07
66176;BME280;52977;44.816;20.538;2023-05-11T08:28:36;99562.88;;;15.20;65.86
66176;BME280;52977;44.816;20.538;2023-05-11T08:31:02;99578.25;;;15.21;65.82
66176;BME280;52977;44.816;20.538;2023-05-11T08:33:29;99598.84;;;15.47;65.67
66176;BME280;52977;44.816;20.538;2023-05-11T08:35:55;99541.09;;;15.11;66.93
66176;BME280;52977;44.816;20.538;2023-05-11T08:38:21;99523.09;;;14.98;66.58
66176;BME280;52977;44.816;20.538;2023-05-11T08:40:49;99586.78;;;15.51;64.76
66176;BME280;52977;44.816;20.538;2023-05-11T08:43:17;99583.81;;;15.25;65.42
66176;BME280;52977;44.816;20.538;2023-05-11T08:45:45;99582.81;;;15.33;65.46
66176;BME280;52977;44.816;20.538;2023-05-11T08:48:15;99593.47;;;15.34;64.56
66176;BME280;52977;44.816;20.538;2023-05-11T08:50:46;99584.50;;;15.37;65.38
66176;BME280;52977;44.816;20.538;2023-05-11T08:53:12;99576.28;;;15.21;64.48
66176;BME280;52977;44.816;20.538;2023-05-11T08:55:40;99559.09;;;15.09;65.05
66176;BME280;52977;44.816;20.538;2023-05-11T08:58:07;99534.53;;;14.84;63.99
66176;BME280;52977;44.816;20.538;2023-05-11T09:00:34;99575.81;;;15.19;64.42
66176;BME280;52977;44.816;20.538;2023-05-11T09:03:00;99550.56;;;14.98;64.19
66176;BME280;52977;44.816;20.538;2023-05-11T09:05:27;99568.75;;;15.18;64.13
66176;BME280;52977;44.816;20.538;2023-05-11T09:07:58;99577.97;;;15.10;64.66
66176;BME280;52977;44.816;20.538;2023-05-11T09:10:25;99516.19;;;14.72;64.87
66176;BME280;52977;44.816;20.538;2023-05-11T09:12:51;99569.00;;;15.13;65.15
66176;BME280;52977;44.816;20.538;2023-05-11T09:15:17;99575.56;;;15.25;64.86
66176;BME280;52977;44.816;20.538;2023-05-11T09:17:44;99561.81;;;15.25;64.29
66176;BME280;52977;44.816;20.538;2023-05-11T09:20:10;99565.47;;;15.13;64.17
66176;BME280;52977;44.816;20.538;2023-05-11T09:22:44;99578.91;;;15.34;63.94
66176;BME280;52977;44.816;20.538;2023-05-11T09:25:12;99575.66;;;15.28;63.97
66176;BME280;52977;44.816;20.538;2023-05-11T09:27:43;99572.63;;;15.17;64.30
66176;BME280;52977;44.816;20.538;2023-05-11T09:30:14;99586.75;;;15.16;63.98
66176;BME280;52977;44.816;20.538;2023-05-11T09:32:51;99582.75;;;15.13;63.61
66176;BME280;52977;44.816;20.538;2023-05-11T09:35:30;99533.28;;;14.81;63.87
66176;BME280;52977;44.816;20.538;2023-05-11T09:40:26;99584.97;;;15.08;62.49
66176;BME280;52977;44.816;20.538;2023-05-11T09:42:53;99558.38;;;14.80;62.60
66176;BME280;52977;44.816;20.538;2023-05-11T09:45:39;99588.16;;;15.10;63.57
66176;BME280;52977;44.816;20.538;2023-05-11T09:48:40;99588.16;;;15.10;63.60
66176;BME280;52977;44.816;20.538;2023-05-11T09:51:05;99578.13;;;14.85;64.29
66176;BME280;52977;44.816;20.538;2023-05-11T09:53:39;99529.03;;;14.68;63.68
66176;BME280;52977;44.816;20.538;2023-05-11T09:56:07;99590.81;;;14.90;63.99
66176;BME280;52977;44.816;20.538;2023-05-11T09:58:53;99546.91;;;14.62;63.19
66176;BME280;52977;44.816;20.538;2023-05-11T10:01:33;99598.53;;;15.00;63.68
66176;BME280;52977;44.816;20.538;2023-05-11T10:04:01;99583.66;;;15.01;63.63
66176;BME280;52977;44.816;20.538;2023-05-11T10:06:48;99582.13;;;15.04;63.95
66176;BME280;52977;44.816;20.538;2023-05-11T10:09:16;99579.38;;;15.04;64.61
66176;BME280;52977;44.816;20.538;2023-05-11T10:11:45;99577.09;;;15.06;64.36
66176;BME280;52977;44.816;20.538;2023-05-11T10:14:12;99580.25;;;15.08;63.96
66176;BME280;52977;44.816;20.538;2023-05-11T10:16:40;99516.88;;;14.69;64.49
66176;BME280;52977;44.816;20.538;2023-05-11T10:19:07;99595.16;;;15.23;64.62
66176;BME280;52977;44.816;20.538;2023-05-11T10:21:34;99550.94;;;14.96;63.69
66176;BME280;52977;44.816;20.538;2023-05-11T10:24:02;99589.56;;;15.19;63.19
66176;BME280;52977;44.816;20.538;2023-05-11T10:26:30;99579.97;;;15.29;62.85
66176;BME280;52977;44.816;20.538;2023-05-11T10:28:58;99540.28;;;14.95;63.74
66176;BME280;52977;44.816;20.538;2023-05-11T10:31:25;99593.19;;;15.24;64.08
66176;BME280;52977;44.816;20.538;2023-05-11T10:33:52;99584.41;;;15.18;65.19
66176;BME280;52977;44.816;20.538;2023-05-11T10:36:18;99555.00;;;15.02;64.85
66176;BME280;52977;44.816;20.538;2023-05-11T10:38:46;99546.78;;;14.86;63.17
66176;BME280;52977;44.816;20.538;2023-05-11T10:41:40;99577.34;;;15.01;63.10
66176;BME280;52977;44.816;20.538;2023-05-11T10:49:57;99589.69;;;15.07;63.17
66176;BME280;52977;44.816;20.538;2023-05-11T10:55:18;99578.78;;;14.95;62.56
66176;BME280;52977;44.816;20.538;2023-05-11T10:58:22;99564.84;;;14.88;63.25
66176;BME280;52977;44.816;20.538;2023-05-11T11:04:01;99588.06;;;15.06;63.47
66176;BME280;52977;44.816;20.538;2023-05-11T11:06:31;99577.81;;;15.03;63.66
66176;BME280;52977;44.816;20.538;2023-05-11T11:09:00;99588.16;;;15.10;63.12
66176;BME280;52977;44.816;20.538;2023-05-11T11:14:05;99578.94;;;15.18;64.61
66176;BME280;52977;44.816;20.538;2023-05-11T11:16:32;99547.94;;;15.01;65.11
66176;BME280;52977;44.816;20.538;2023-05-11T11:21:56;99558.28;;;15.08;66.32
66176;BME280;52977;44.816;20.538;2023-05-11T11:24:52;99587.25;;;15.06;68.84
66176;BME280;52977;44.816;20.538;2023-05-11T11:27:18;99542.06;;;14.87;69.95
66176;BME280;52977;44.816;20.538;2023-05-11T11:30:26;99591.72;;;15.10;71.48
66176;BME280;52977;44.816;20.538;2023-05-11T11:33:29;99508.00;;;14.60;72.38
66176;BME280;52977;44.816;20.538;2023-05-11T11:38:12;99580.00;;;14.81;72.84
66176;BME280;52977;44.816;20.538;2023-05-11T11:40:41;99592.53;;;14.95;71.76
66176;BME280;52977;44.816;20.538;2023-05-11T11:43:14;99595.88;;;14.72;69.79
66176;BME280;52977;44.816;20.538;2023-05-11T11:45:55;99592.75;;;14.45;70.15
66176;BME280;52977;44.816;20.538;2023-05-11T11:48:33;99595.22;;;14.63;71.03
66176;BME280;52977;44.816;20.538;2023-05-11T11:56:03;99593.84;;;14.57;70.23
66176;BME280;52977;44.816;20.538;2023-05-11T12:01:17;99570.09;;;14.48;71.57
66176;BME280;52977;44.816;20.538;2023-05-11T12:03:45;99605.06;;;14.64;71.85
66176;BME280;52977;44.816;20.538;2023-05-11T12:06:12;99604.03;;;14.56;70.16
66176;BME280;52977;44.816;20.538;2023-05-11T12:08:40;99602.41;;;14.67;71.68
66176;BME280;52977;44.816;20.538;2023-05-11T12:11:08;99599.44;;;14.60;71.97
66176;BME280;52977;44.816;20.538;2023-05-11T12:13:34;99569.00;;;14.37;74.00
66176;BME280;52977;44.816;20.538;2023-05-11T12:16:11;99550.53;;;14.22;74.08
66176;BME280;52977;44.816;20.538;2023-05-11T12:18:38;99587.25;;;14.45;76.77
66176;BME280;52977;44.816;20.538;2023-05-11T12:21:04;99604.00;;;14.68;75.98
66176;BME280;52977;44.816;20.538;2023-05-11T12:23:31;99584.66;;;14.65;74.79
66176;BME280;52977;44.816;20.538;2023-05-11T12:28:27;99572.88;;;13.79;79.91
66176;BME280;52977;44.816;20.538;2023-05-11T12:30:55;99605.25;;;14.14;80.69
66176;BME280;52977;44.816;20.538;2023-05-11T12:33:21;99593.94;;;14.04;83.60
66176;BME280;52977;44.816;20.538;2023-05-11T12:35:55;99584.53;;;13.89;84.18
66176;BME280;52977;44.816;20.538;2023-05-11T12:38:22;99604.41;;;13.85;85.66
66176;BME280;52977;44.816;20.538;2023-05-11T12:40:49;99537.94;;;13.64;85.63
66176;BME280;52977;44.816;20.538;2023-05-11T12:43:16;99599.72;;;13.86;86.44
66176;BME280;52977;44.816;20.538;2023-05-11T12:45:43;99549.84;;;13.56;86.12
66176;BME280;52977;44.816;20.538;2023-05-11T12:48:10;99552.81;;;13.50;86.53
66176;BME280;52977;44.816;20.538;2023-05-11T12:50:45;99528.75;;;13.19;88.95
66176;BME280;52977;44.816;20.538;2023-05-11T12:53:19;99564.59;;;13.51;90.87
66176;BME280;52977;44.816;20.538;2023-05-11T12:55:56;99595.22;;;13.53;91.87
66176;BME280;52977;44.816;20.538;2023-05-11T12:58:23;99547.59;;;13.45;91.98
66176;BME280;52977;44.816;20.538;2023-05-11T13:00:54;99545.41;;;13.26;94.68
66176;BME280;52977;44.816;20.538;2023-05-11T13:05:48;99596.69;;;13.13;96.63
66176;BME280;52977;44.816;20.538;2023-05-11T13:08:18;99601.25;;;13.34;94.84
66176;BME280;52977;44.816;20.538;2023-05-11T13:10:44;99580.81;;;13.19;94.97
66176;BME280;52977;44.816;20.538;2023-05-11T13:13:10;99596.00;;;13.16;97.09
66176;BME280;52977;44.816;20.538;2023-05-11T13:15:49;99581.59;;;13.07;96.13
66176;BME280;52977;44.816;20.538;2023-05-11T13:18:16;99588.81;;;13.37;95.78
66176;BME280;52977;44.816;20.538;2023-05-11T13:20:43;99593.63;;;13.40;94.12
66176;BME280;52977;44.816;20.538;2023-05-11T13:23:12;99571.69;;;13.15;94.55
66176;BME280;52977;44.816;20.538;2023-05-11T13:28:13;99571.47;;;13.20;95.27
66176;BME280;52977;44.816;20.538;2023-05-11T13:30:40;99557.19;;;13.02;95.24
66176;BME280;52977;44.816;20.538;2023-05-11T13:33:06;99449.63;;;12.31;95.01
66176;BME280;52977;44.816;20.538;2023-05-11T13:35:37;99584.00;;;13.21;94.45
66176;BME280;52977;44.816;20.538;2023-05-11T13:38:04;99582.41;;;13.08;93.91